createdAt,value
2018-08-20T00:01:36.325Z,3.13
2018-08-20T00:04:06.779Z,3.10
2018-08-20T00:06:47.904Z,3.20
2018-08-20T00:09:16.473Z,3.53
2018-08-20T00:11:44.323Z,6.30
2018-08-20T00:14:13.799Z,3.87
2018-08-20T00:16:41.658Z,3.20
2018-08-20T00:19:12.740Z,3.10
2018-08-20T00:21:41.572Z,3.37
2018-08-20T00:24:09.504Z,3.17
2018-08-20T00:26:37.774Z,2.90
2018-08-20T00:29:06.117Z,7.40
2018-08-20T00:31:35.639Z,3.10
2018-08-20T00:34:03.396Z,2.67
2018-08-20T00:36:31.448Z,4.30
2018-08-20T00:38:59.222Z,3.03
2018-08-20T00:41:27.174Z,3.30
2018-08-20T00:43:55.152Z,3.63
2018-08-20T00:46:23.699Z,3.23
2018-08-20T00:48:51.875Z,2.53
2018-08-20T00:51:19.657Z,3.23
2018-08-20T00:53:47.435Z,2.70
2018-08-20T00:56:15.389Z,3.10
2018-08-20T00:58:43.590Z,3.50
2018-08-20T01:01:11.863Z,2.63
2018-08-20T01:03:39.632Z,3.50
2018-08-20T01:06:07.683Z,2.87
2018-08-20T01:08:35.845Z,3.60
2018-08-20T01:11:03.869Z,3.47
2018-08-20T01:13:32.273Z,3.37
2018-08-20T01:16:00.155Z,3.10
2018-08-20T01:18:27.900Z,3.37
2018-08-20T01:20:56.116Z,5.40
2018-08-20T01:23:24.113Z,3.00
2018-08-20T01:25:52.275Z,3.33
2018-08-20T01:28:20.080Z,4.37
2018-08-20T01:30:48.351Z,3.17
2018-08-20T01:33:16.781Z,3.73
2018-08-20T01:35:45.247Z,3.43
2018-08-20T01:38:13.198Z,2.83
2018-08-20T01:40:41.084Z,3.33
2018-08-20T01:43:09.253Z,5.60
2018-08-20T01:45:37.295Z,3.23
2018-08-20T01:48:05.148Z,4.27
2018-08-20T01:50:32.934Z,3.87
2018-08-20T01:53:00.783Z,3.30
2018-08-20T01:55:28.716Z,2.90
2018-08-20T01:57:56.589Z,3.60
2018-08-20T02:00:24.742Z,3.50
2018-08-20T02:02:52.751Z,3.20
2018-08-20T02:05:21.168Z,3.63
2018-08-20T02:07:49.390Z,3.40
2018-08-20T02:10:17.850Z,3.50
2018-08-20T02:12:45.809Z,3.50
2018-08-20T02:15:13.952Z,3.57
2018-08-20T02:17:41.782Z,3.20
2018-08-20T02:20:10.079Z,4.07
2018-08-20T02:22:38.554Z,4.00
2018-08-20T02:25:06.618Z,4.07
2018-08-20T02:27:34.522Z,4.23
2018-08-20T02:30:02.568Z,4.10
2018-08-20T02:32:30.617Z,3.67
2018-08-20T02:34:58.585Z,5.50
2018-08-20T02:37:31.167Z,3.80
2018-08-20T02:39:59.604Z,3.83
2018-08-20T02:42:27.538Z,4.70
2018-08-20T02:44:55.404Z,3.73
2018-08-20T02:47:23.131Z,4.23
2018-08-20T02:49:51.072Z,3.87
2018-08-20T02:52:19.251Z,4.77
2018-08-20T02:54:47.251Z,3.90
2018-08-20T02:57:15.109Z,3.43
2018-08-20T02:59:42.937Z,5.87
2018-08-20T03:02:11.143Z,6.77
2018-08-20T03:04:39.370Z,4.03
2018-08-20T03:07:07.383Z,4.33
2018-08-20T03:09:35.244Z,4.90
2018-08-20T03:12:03.363Z,3.90
2018-08-20T03:14:31.529Z,4.20
2018-08-20T03:16:59.550Z,4.00
2018-08-20T03:19:27.663Z,4.50
2018-08-20T03:21:55.542Z,4.10
2018-08-20T03:24:23.594Z,5.93
2018-08-20T03:26:51.316Z,3.70
2018-08-20T03:29:19.205Z,4.07
2018-08-20T03:31:47.101Z,3.53
2018-08-20T03:34:15.182Z,4.40
2018-08-20T03:36:43.256Z,4.63
2018-08-20T03:39:11.363Z,4.77
2018-08-20T03:41:39.502Z,5.57
2018-08-20T03:44:07.650Z,3.77
2018-08-20T03:46:36.821Z,5.43
2018-08-20T03:49:05.306Z,4.67
2018-08-20T03:54:17.191Z,4.50
2018-08-20T03:56:45.033Z,4.87
2018-08-20T03:59:28.637Z,4.77
2018-08-20T04:01:56.824Z,5.70
2018-08-20T04:04:25.099Z,7.10
2018-08-20T04:06:52.934Z,6.00
2018-08-20T04:09:20.863Z,8.27
2018-08-20T04:11:48.851Z,5.90
2018-08-20T04:14:17.237Z,4.53
2018-08-20T04:16:45.562Z,9.67
2018-08-20T04:19:13.933Z,4.83
2018-08-20T04:21:41.750Z,5.10
2018-08-20T04:24:09.802Z,5.03
2018-08-20T04:26:38.092Z,8.33
2018-08-20T04:29:06.616Z,4.30
2018-08-20T04:31:36.518Z,5.50
2018-08-20T04:34:04.618Z,5.63
2018-08-20T04:36:32.392Z,5.17
2018-08-20T04:39:00.606Z,6.67
2018-08-20T04:41:28.630Z,8.60
2018-08-20T04:43:56.685Z,5.30
2018-08-20T04:46:24.568Z,8.00
2018-08-20T04:48:52.720Z,4.80
2018-08-20T04:51:20.997Z,5.50
2018-08-20T04:53:49.680Z,5.40
2018-08-20T04:56:17.684Z,6.53
2018-08-20T04:58:45.686Z,5.90
2018-08-20T05:01:14.180Z,6.37
2018-08-20T05:03:42.761Z,5.00
2018-08-20T05:06:10.968Z,6.73
2018-08-20T05:08:39.820Z,9.13
2018-08-20T05:11:08.426Z,6.47
2018-08-20T05:13:36.629Z,5.57
2018-08-20T05:16:04.668Z,6.00
2018-08-20T05:18:32.750Z,6.80
2018-08-20T05:21:01.614Z,48.40
2018-08-20T05:23:29.592Z,7.43
2018-08-20T05:25:58.256Z,6.23
2018-08-20T05:28:26.308Z,6.20
2018-08-20T05:30:54.077Z,5.80
2018-08-20T05:33:22.206Z,5.63
2018-08-20T05:35:50.250Z,6.43
2018-08-20T05:38:18.349Z,9.73
2018-08-20T05:40:46.359Z,10.67
2018-08-20T05:43:15.282Z,6.03
2018-08-20T05:45:43.450Z,7.00
2018-08-20T05:48:11.642Z,8.47
2018-08-20T05:50:39.555Z,12.73
2018-08-20T05:53:07.540Z,6.40
2018-08-20T05:55:35.520Z,5.90
2018-08-20T05:58:03.679Z,6.40
2018-08-20T06:00:31.999Z,7.53
2018-08-20T06:03:00.163Z,7.43
2018-08-20T06:05:28.385Z,7.10
2018-08-20T06:07:56.547Z,5.90
2018-08-20T06:10:25.012Z,5.97
2018-08-20T06:12:53.556Z,14.13
2018-08-20T06:15:22.176Z,6.90
2018-08-20T06:17:50.690Z,6.63
2018-08-20T06:20:18.690Z,10.57
2018-08-20T06:22:46.983Z,6.43
2018-08-20T06:25:15.418Z,8.00
2018-08-20T06:27:43.974Z,13.43
2018-08-20T06:30:15.101Z,9.70
2018-08-20T06:32:44.144Z,10.83
2018-08-20T06:35:12.252Z,12.10
2018-08-20T06:37:40.384Z,13.00
2018-08-20T06:40:10.675Z,14.77
2018-08-20T06:42:39.391Z,10.57
2018-08-20T06:45:10.766Z,12.43
2018-08-20T06:47:38.740Z,10.20
2018-08-20T06:50:06.654Z,15.73
2018-08-20T06:52:35.166Z,23.53
2018-08-20T06:55:03.678Z,12.17
2018-08-20T06:57:31.976Z,16.80
2018-08-20T06:59:59.881Z,9.97
2018-08-20T07:02:28.126Z,14.57
2018-08-20T07:04:56.073Z,15.23
2018-08-20T07:07:24.240Z,9.50
2018-08-20T07:09:52.373Z,14.07
2018-08-20T07:12:20.260Z,9.70
2018-08-20T07:14:48.337Z,11.27
2018-08-20T07:17:16.539Z,11.00
2018-08-20T07:19:44.636Z,13.07
2018-08-20T07:22:13.879Z,11.27
2018-08-20T07:24:42.158Z,13.40
2018-08-20T07:27:10.396Z,11.70
2018-08-20T07:29:39.606Z,13.57
2018-08-20T07:32:09.999Z,9.90
2018-08-20T07:34:40.149Z,10.80
2018-08-20T07:37:09.978Z,11.97
2018-08-20T07:39:38.562Z,11.90
2018-08-20T07:42:06.603Z,9.33
2018-08-20T07:44:34.564Z,8.50
2018-08-20T07:47:02.473Z,10.13
2018-08-20T07:49:30.409Z,9.40
2018-08-20T07:51:58.358Z,9.83
2018-08-20T07:54:26.144Z,13.80
2018-08-20T07:56:54.190Z,8.27
2018-08-20T07:59:22.722Z,11.23
2018-08-20T08:01:50.837Z,8.80
2018-08-20T08:04:18.995Z,14.00
2018-08-20T08:06:47.949Z,10.77
2018-08-20T08:09:16.456Z,12.23
2018-08-20T08:11:44.680Z,8.80
2018-08-20T08:14:13.474Z,9.17
2018-08-20T08:16:41.586Z,9.63
2018-08-20T08:19:09.602Z,10.30
2018-08-20T08:21:37.401Z,10.97
2018-08-20T08:24:05.373Z,10.10
2018-08-20T08:26:34.096Z,10.07
2018-08-20T08:29:02.364Z,9.70
2018-08-20T08:31:30.396Z,18.70
2018-08-20T08:33:59.029Z,10.87
2018-08-20T08:36:26.849Z,10.83
2018-08-20T08:38:55.407Z,11.47
2018-08-20T08:41:23.665Z,13.87
2018-08-20T08:43:52.210Z,10.40
2018-08-20T08:46:20.708Z,11.20
2018-08-20T08:48:49.181Z,11.20
2018-08-20T08:51:17.215Z,11.43
2018-08-20T08:53:46.018Z,10.07
2018-08-20T08:56:14.381Z,10.57
2018-08-20T08:58:42.777Z,12.67
2018-08-20T09:01:11.517Z,9.53
2018-08-20T09:03:39.932Z,10.90
2018-08-20T09:06:08.669Z,10.43
2018-08-20T09:08:37.278Z,9.03
2018-08-20T09:11:05.834Z,7.37
2018-08-20T09:13:34.579Z,7.00
2018-08-20T09:16:02.844Z,7.83
2018-08-20T09:18:30.890Z,7.30
2018-08-20T09:20:58.958Z,10.70
2018-08-20T09:23:29.713Z,7.90
2018-08-20T09:25:59.112Z,7.73
2018-08-20T09:28:27.321Z,7.87
2018-08-20T09:30:55.162Z,8.03
2018-08-20T09:33:22.987Z,8.60
2018-08-20T09:35:50.924Z,9.50
2018-08-20T09:38:18.874Z,9.10
2018-08-20T09:40:47.092Z,9.13
2018-08-20T09:43:15.213Z,8.07
2018-08-20T09:45:43.417Z,8.23
2018-08-20T09:48:11.668Z,9.93
2018-08-20T09:50:39.750Z,8.10
2018-08-20T09:53:07.643Z,8.70
2018-08-20T09:55:35.868Z,8.17
2018-08-20T09:58:04.697Z,8.97
2018-08-20T10:00:40.068Z,9.07
2018-08-20T10:03:10.716Z,12.23
2018-08-20T10:05:39.283Z,13.63
2018-08-20T10:08:07.865Z,12.40
2018-08-20T10:10:35.803Z,10.80
2018-08-20T10:13:04.283Z,14.13
2018-08-20T10:15:33.202Z,13.30
2018-08-20T10:18:01.206Z,16.20
2018-08-20T10:20:29.260Z,13.43
2018-08-20T10:22:58.679Z,18.13
2018-08-20T10:25:28.567Z,17.00
2018-08-20T10:27:57.506Z,19.13
2018-08-20T10:30:37.215Z,16.60
2018-08-20T10:33:06.012Z,18.33
2018-08-20T10:35:34.023Z,20.53
2018-08-20T10:38:03.935Z,17.30
2018-08-20T10:40:37.260Z,17.07
2018-08-20T10:43:05.373Z,15.57
2018-08-20T10:45:39.099Z,16.47
2018-08-20T10:48:08.093Z,15.07
2018-08-20T10:50:38.463Z,14.10
2018-08-20T10:53:11.681Z,20.00
2018-08-20T10:55:40.744Z,14.90
2018-08-20T10:58:12.110Z,18.30
2018-08-20T11:00:40.397Z,17.97
2018-08-20T11:03:13.001Z,16.93
2018-08-20T11:05:41.079Z,13.07
2018-08-20T11:08:12.709Z,12.50
2018-08-20T11:10:42.406Z,15.20
2018-08-20T11:13:11.085Z,12.60
2018-08-20T11:15:39.826Z,11.80
2018-08-20T11:18:09.721Z,17.20
2018-08-20T11:20:37.758Z,17.00
2018-08-20T11:23:06.236Z,15.23
2018-08-20T11:25:34.658Z,13.53
2018-08-20T11:28:02.675Z,14.80
2018-08-20T11:30:30.501Z,13.23
2018-08-20T11:32:58.539Z,13.37
2018-08-20T11:35:26.597Z,17.90
2018-08-20T11:37:54.663Z,15.93
2018-08-20T11:40:23.004Z,13.73
2018-08-20T11:42:50.871Z,15.33
2018-08-20T11:45:19.207Z,15.53
2018-08-20T11:47:47.362Z,18.30
2018-08-20T11:50:15.368Z,12.70
2018-08-20T11:52:43.705Z,12.90
2018-08-20T11:55:11.905Z,12.67
2018-08-20T11:57:40.365Z,12.27
2018-08-20T12:00:09.650Z,17.03
2018-08-20T12:02:38.258Z,12.97
2018-08-20T12:05:06.602Z,16.03
2018-08-20T12:07:34.709Z,13.13
2018-08-20T12:10:02.506Z,15.87
2018-08-20T12:12:30.845Z,15.00
2018-08-20T12:14:58.947Z,13.07
2018-08-20T12:17:26.997Z,13.63
2018-08-20T12:19:54.904Z,12.90
2018-08-20T12:22:23.687Z,13.40
2018-08-20T12:24:51.674Z,12.97
2018-08-20T12:27:19.723Z,16.83
2018-08-20T12:29:47.899Z,13.00
2018-08-20T12:32:16.035Z,12.03
2018-08-20T12:34:44.309Z,12.07
2018-08-20T12:37:12.164Z,14.67
2018-08-20T12:39:40.248Z,11.27
2018-08-20T12:42:08.231Z,11.00
2018-08-20T12:44:36.461Z,10.33
2018-08-20T12:47:04.694Z,8.73
2018-08-20T12:49:32.962Z,10.53
2018-08-20T12:52:00.881Z,9.70
2018-08-20T12:54:28.960Z,9.00
2018-08-20T12:56:56.970Z,8.97
2018-08-20T12:59:25.250Z,10.00
2018-08-20T13:01:53.181Z,11.37
2018-08-20T13:04:21.388Z,9.73
2018-08-20T13:06:49.735Z,10.43
2018-08-20T13:09:17.845Z,14.60
2018-08-20T13:11:45.830Z,11.90
2018-08-20T13:14:15.301Z,12.37
2018-08-20T13:16:43.981Z,14.87
2018-08-20T13:19:12.446Z,12.30
2018-08-20T13:21:40.480Z,12.27
2018-08-20T13:24:09.122Z,10.50
2018-08-20T13:26:38.868Z,10.90
2018-08-20T13:29:06.994Z,11.27
2018-08-20T13:31:36.700Z,10.17
2018-08-20T13:34:05.319Z,14.30
2018-08-20T13:36:37.677Z,10.37
2018-08-20T13:39:06.671Z,10.37
2018-08-20T13:41:35.747Z,10.20
2018-08-20T13:44:03.771Z,10.97
2018-08-20T13:46:31.549Z,10.53
2018-08-20T13:48:59.467Z,14.90
2018-08-20T13:51:27.579Z,14.80
2018-08-20T13:53:55.670Z,22.33
2018-08-20T13:56:23.490Z,19.87
2018-08-20T13:58:51.702Z,25.17
2018-08-20T14:01:19.637Z,18.70
2018-08-20T14:03:47.944Z,21.30
2018-08-20T14:06:16.189Z,25.63
2018-08-20T14:08:45.000Z,18.87
2018-08-20T14:11:14.066Z,20.37
2018-08-20T14:13:43.043Z,20.60
2018-08-20T14:16:11.846Z,17.53
2018-08-20T14:18:39.687Z,16.17
2018-08-20T14:21:13.662Z,18.50
2018-08-20T14:23:44.600Z,15.57
2018-08-20T14:26:12.553Z,18.07
2018-08-20T14:28:40.590Z,20.00
2018-08-20T14:31:09.094Z,20.43
2018-08-20T14:33:37.174Z,17.83
2018-08-20T14:36:05.480Z,20.13
2018-08-20T14:38:34.345Z,15.27
2018-08-20T14:41:02.417Z,20.47
2018-08-20T14:43:31.039Z,18.73
2018-08-20T14:46:05.195Z,15.27
2018-08-20T14:48:34.155Z,19.13
2018-08-20T14:51:02.008Z,15.83
2018-08-20T14:53:32.896Z,18.70
2018-08-20T14:56:01.020Z,15.40
2018-08-20T14:58:29.256Z,12.13
2018-08-20T15:00:57.979Z,14.23
2018-08-20T15:03:28.705Z,16.03
2018-08-20T15:05:57.533Z,13.47
2018-08-20T15:08:28.045Z,14.20
2018-08-20T15:10:56.181Z,11.47
2018-08-20T15:13:25.713Z,14.10
2018-08-20T15:15:54.319Z,14.03
2018-08-20T15:18:22.321Z,13.13
2018-08-20T15:20:50.782Z,11.70
2018-08-20T15:23:18.695Z,15.17
2018-08-20T15:25:47.128Z,14.53
2018-08-20T15:28:15.075Z,12.50
2018-08-20T15:30:43.303Z,15.37
2018-08-20T15:33:12.009Z,15.63
2018-08-20T15:35:40.330Z,17.57
2018-08-20T15:38:08.563Z,20.10
2018-08-20T15:40:36.413Z,18.03
2018-08-20T15:43:04.345Z,20.60
2018-08-20T15:45:32.349Z,13.20
2018-08-20T15:48:00.680Z,14.87
2018-08-20T15:50:28.678Z,16.93
2018-08-20T15:52:57.184Z,12.30
2018-08-20T15:55:25.454Z,14.27
2018-08-20T15:57:53.840Z,18.40
2018-08-20T16:00:21.854Z,14.23
2018-08-20T16:02:50.062Z,15.90
2018-08-20T16:05:18.986Z,16.93
2018-08-20T16:07:47.092Z,26.30
2018-08-20T16:10:15.083Z,19.13
2018-08-20T16:12:43.361Z,14.30
2018-08-20T16:15:11.619Z,16.60
2018-08-20T16:17:39.556Z,13.57
2018-08-20T16:20:08.138Z,12.37
2018-08-20T16:22:37.001Z,21.37
2018-08-20T16:25:06.178Z,16.37
2018-08-20T16:27:34.336Z,13.17
2018-08-20T16:30:02.524Z,13.83
2018-08-20T16:32:31.280Z,15.30
2018-08-20T16:34:59.149Z,14.37
2018-08-20T16:37:27.845Z,12.93
2018-08-20T16:39:56.017Z,15.60
2018-08-20T16:42:25.232Z,15.43
2018-08-20T16:44:53.327Z,12.40
2018-08-20T16:47:21.916Z,13.40
2018-08-20T16:49:50.238Z,15.10
2018-08-20T16:52:18.549Z,14.53
2018-08-20T16:54:46.683Z,14.27
2018-08-20T16:57:14.724Z,15.10
2018-08-20T16:59:43.346Z,12.60
2018-08-20T17:02:20.236Z,14.50
2018-08-20T17:04:48.502Z,22.53
2018-08-20T17:07:16.998Z,20.30
2018-08-20T17:09:45.232Z,13.70
2018-08-20T17:12:13.569Z,12.53
2018-08-20T17:14:43.033Z,12.87
2018-08-20T17:17:12.229Z,15.57
2018-08-20T17:19:43.891Z,16.93
2018-08-20T17:22:11.856Z,14.20
2018-08-20T17:24:40.835Z,22.60
2018-08-20T17:27:10.224Z,12.93
2018-08-20T17:29:38.325Z,13.67
2018-08-20T17:32:07.583Z,13.47
2018-08-20T17:34:38.862Z,11.17
2018-08-20T17:37:07.077Z,11.33
2018-08-20T17:39:48.070Z,15.17
2018-08-20T17:42:16.349Z,13.43
2018-08-20T17:44:44.579Z,12.00
2018-08-20T17:47:17.576Z,10.27
2018-08-20T17:49:45.982Z,10.93
2018-08-20T17:52:14.507Z,11.60
2018-08-20T17:54:42.470Z,11.53
2018-08-20T17:57:10.819Z,13.53
2018-08-20T17:59:39.080Z,10.10
2018-08-20T18:02:12.135Z,8.90
2018-08-20T18:04:40.840Z,13.73
2018-08-20T18:07:09.122Z,14.83
2018-08-20T18:09:37.219Z,12.93
2018-08-20T18:12:05.234Z,11.00
2018-08-20T18:14:34.420Z,10.33
2018-08-20T18:17:03.378Z,26.10
2018-08-20T18:19:31.371Z,9.73
2018-08-20T18:21:59.272Z,10.40
2018-08-20T18:24:27.125Z,8.53
2018-08-20T18:26:56.421Z,11.13
2018-08-20T18:29:26.834Z,19.33
2018-08-20T18:32:00.405Z,8.40
2018-08-20T18:34:29.075Z,8.23
2018-08-20T18:37:01.621Z,8.60
2018-08-20T18:39:30.311Z,9.07
2018-08-20T18:42:02.801Z,12.30
2018-08-20T18:44:30.891Z,9.20
2018-08-20T18:47:01.736Z,8.20
2018-08-20T18:49:30.170Z,9.93
2018-08-20T18:52:04.887Z,9.67
2018-08-20T18:54:39.100Z,11.10
2018-08-20T18:57:07.206Z,15.23
2018-08-20T18:59:38.625Z,9.13
2018-08-20T19:02:09.180Z,8.60
2018-08-20T19:04:43.567Z,9.50
2018-08-20T19:07:13.284Z,8.87
2018-08-20T19:09:46.367Z,9.23
2018-08-20T19:12:15.011Z,9.20
2018-08-20T19:14:44.218Z,11.23
2018-08-20T19:17:17.706Z,12.10
2018-08-20T19:19:49.738Z,8.93
2018-08-20T19:22:23.719Z,9.13
2018-08-20T19:24:51.818Z,12.60
2018-08-20T19:27:20.424Z,14.93
2018-08-20T19:29:48.907Z,11.13
2018-08-20T19:32:17.085Z,9.20
2018-08-20T19:34:45.025Z,9.10
2018-08-20T19:37:13.986Z,9.27
2018-08-20T19:39:42.726Z,9.53
2018-08-20T19:42:14.481Z,8.70
2018-08-20T19:44:43.980Z,16.23
2018-08-20T19:47:12.062Z,8.97
2018-08-20T19:49:40.288Z,10.80
2018-08-20T19:52:08.404Z,9.50
2018-08-20T19:54:36.359Z,8.97
2018-08-20T19:57:04.548Z,10.60
2018-08-20T19:59:36.385Z,9.23
2018-08-20T20:02:05.314Z,8.97
2018-08-20T20:04:34.820Z,10.70
2018-08-20T20:07:03.222Z,9.17
2018-08-20T20:09:32.054Z,8.70
2018-08-20T20:12:00.552Z,13.23
2018-08-20T20:14:33.789Z,11.80
2018-08-20T20:17:02.376Z,9.70
2018-08-20T20:19:31.064Z,9.30
2018-08-20T20:21:59.237Z,9.23
2018-08-20T20:24:27.795Z,13.07
2018-08-20T20:26:55.964Z,8.97
2018-08-20T20:29:23.967Z,10.53
2018-08-20T20:31:51.920Z,9.27
2018-08-20T20:34:19.957Z,8.90
2018-08-20T20:36:48.059Z,10.17
2018-08-20T20:39:16.032Z,11.30
2018-08-20T20:41:44.886Z,7.90
2018-08-20T20:44:13.219Z,8.40
2018-08-20T20:46:41.631Z,7.87
2018-08-20T20:49:09.707Z,9.00
2018-08-20T20:51:37.991Z,8.67
2018-08-20T20:54:05.895Z,8.47
2018-08-20T20:56:34.224Z,9.20
2018-08-20T20:59:02.410Z,9.03
2018-08-20T21:01:30.528Z,10.40
2018-08-20T21:04:01.788Z,9.97
2018-08-20T21:06:29.871Z,9.07
2018-08-20T21:08:58.617Z,9.10
2018-08-20T21:11:26.488Z,10.23
2018-08-20T21:13:54.848Z,8.47
2018-08-20T21:16:24.325Z,8.00
2018-08-20T21:18:54.463Z,11.33
2018-08-20T21:21:23.441Z,7.27
2018-08-20T21:23:51.550Z,10.80
2018-08-20T21:26:19.652Z,8.30
2018-08-20T21:28:52.437Z,8.60
2018-08-20T21:31:21.535Z,8.60
2018-08-20T21:33:57.613Z,13.30
2018-08-20T21:36:25.832Z,8.87
2018-08-20T21:38:54.576Z,10.20
2018-08-20T21:41:25.840Z,8.50
2018-08-20T21:43:54.108Z,10.57
2018-08-20T21:46:22.442Z,9.23
2018-08-20T21:48:51.469Z,11.50
2018-08-20T21:51:34.989Z,9.17
2018-08-20T21:54:03.301Z,9.87
2018-08-20T21:56:42.403Z,10.93
2018-08-20T21:59:10.341Z,10.73
2018-08-20T22:01:38.794Z,13.80
2018-08-20T22:04:12.204Z,8.70
2018-08-20T22:06:40.253Z,8.60
2018-08-20T22:09:08.014Z,9.37
2018-08-20T22:11:35.991Z,13.07
2018-08-20T22:14:04.263Z,10.07
2018-08-20T22:16:32.223Z,11.23
2018-08-20T22:19:00.320Z,9.37
2018-08-20T22:21:28.690Z,9.50
2018-08-20T22:23:57.697Z,10.73
2018-08-20T22:26:25.732Z,8.80
2018-08-20T22:28:54.118Z,9.97
2018-08-20T22:31:22.217Z,10.77
2018-08-20T22:33:56.805Z,10.07
2018-08-20T22:36:25.370Z,9.73
2018-08-20T22:38:55.322Z,11.00
2018-08-20T22:41:25.331Z,10.30
2018-08-20T22:43:53.394Z,11.83
2018-08-20T22:46:22.380Z,9.63
2018-08-20T22:48:55.360Z,10.70
2018-08-20T22:51:24.869Z,9.23
2018-08-20T22:53:56.249Z,10.93
2018-08-20T22:56:26.551Z,14.83
2018-08-20T22:59:00.750Z,16.83
2018-08-20T23:01:28.947Z,8.70
2018-08-20T23:03:56.938Z,8.97
2018-08-20T23:06:25.238Z,11.33
2018-08-20T23:08:53.257Z,11.73
2018-08-20T23:11:36.373Z,8.40
2018-08-20T23:14:05.583Z,9.30
2018-08-20T23:16:33.560Z,9.27
2018-08-20T23:19:01.798Z,9.70
2018-08-20T23:21:34.747Z,12.10
2018-08-20T23:24:02.815Z,9.10
2018-08-20T23:26:30.703Z,10.60
2018-08-20T23:28:58.654Z,10.60
2018-08-20T23:31:26.824Z,11.53
2018-08-20T23:33:55.267Z,9.50
2018-08-20T23:36:23.531Z,10.43
2018-08-20T23:38:51.717Z,10.00
2018-08-20T23:41:20.610Z,12.27
2018-08-20T23:43:58.083Z,12.00
2018-08-20T23:46:38.452Z,9.37
2018-08-20T23:49:06.272Z,10.40
2018-08-20T23:51:34.454Z,10.03
2018-08-20T23:54:02.740Z,8.93
2018-08-20T23:56:30.853Z,9.30
2018-08-20T23:58:59.351Z,16.10
